University Park Airport State College US
ICAO: KUNV
IATA: SCE
Category: Medium
Scheduled Services: Yes

Elevation: 1239 ft
TransAlt. 18000 ft.

Airport Communications:
AWOS 3:127.65
CLNC DEL:118.55
NEW YORK CNTR:134.8
ALTOONA RDO:122.5
CTAF/UNICOM:122.8

KUNV Zoom In..

If you have problems with the map follow the link
https://www.worldairports.se/pages/airport.php?
ICAO=KUNV

Runways:

(A) RW 06 length 6701 ft width 150 ft
---- / hdg 64

(B) RW 24 length 6701 ft width 150 ft
ILS 111.70 / hdg 244

Location; KUNV
Day. 14 / Time. 05.35 Zulu
* Altimeter: 29.80
* Temperature: 00° c. 32°f.
* Wind from: 010° Speed 03 kn.
Dewpoint: 00° c.
Visibility: 5 Statute Miles.
Clouds: Overcast 200 ft.
Conditions: Mist.

KUNV 140535Z AUTO 01003KT 5SM BR OVC002 00/00 A2980 RMK AO2 T00030003


Wind From 010°
Speed 03 kn.

 
 
jpsmedia worldairports.se 2019   terms of use